sensor_id;sensor_type;location;lat;lon;timestamp;temperature;humidity
46926;DHT22;32667;48.248;-1.700;2022-12-01T00:01:45;7.10;78.40
46926;DHT22;32667;48.248;-1.700;2022-12-01T00:04:11;7.10;78.30
46926;DHT22;32667;48.248;-1.700;2022-12-01T00:06:36;7.20;78.30
46926;DHT22;32667;48.248;-1.700;2022-12-01T00:09:02;7.20;78.30
46926;DHT22;32667;48.248;-1.700;2022-12-01T00:11:47;7.20;78.20
46926;DHT22;32667;48.248;-1.700;2022-12-01T00:14:13;7.30;78.10
46926;DHT22;32667;48.248;-1.700;2022-12-01T00:16:40;7.30;78.00
46926;DHT22;32667;48.248;-1.700;2022-12-01T00:19:08;7.30;78.00
46926;DHT22;32667;48.248;-1.700;2022-12-01T00:21:33;7.30;77.90
46926;DHT22;32667;48.248;-1.700;2022-12-01T00:23:59;7.30;77.90
46926;DHT22;32667;48.248;-1.700;2022-12-01T00:26:26;7.30;77.80
46926;DHT22;32667;48.248;-1.700;2022-12-01T00:28:56;7.30;77.90
46926;DHT22;32667;48.248;-1.700;2022-12-01T00:31:22;7.30;78.00
46926;DHT22;32667;48.248;-1.700;2022-12-01T00:33:48;7.30;78.10
46926;DHT22;32667;48.248;-1.700;2022-12-01T00:36:14;7.30;78.10
46926;DHT22;32667;48.248;-1.700;2022-12-01T00:38:40;7.30;78.10
46926;DHT22;32667;48.248;-1.700;2022-12-01T00:41:06;7.40;78.00
46926;DHT22;32667;48.248;-1.700;2022-12-01T00:43:32;7.40;78.60
46926;DHT22;32667;48.248;-1.700;2022-12-01T00:45:58;7.40;78.00
46926;DHT22;32667;48.248;-1.700;2022-12-01T00:48:24;7.40;78.00
46926;DHT22;32667;48.248;-1.700;2022-12-01T00:50:53;7.30;77.90
46926;DHT22;32667;48.248;-1.700;2022-12-01T00:53:20;7.30;78.00
46926;DHT22;32667;48.248;-1.700;2022-12-01T00:55:46;7.30;78.00
46926;DHT22;32667;48.248;-1.700;2022-12-01T00:58:12;7.40;78.10
46926;DHT22;32667;48.248;-1.700;2022-12-01T01:00:37;7.30;78.00
46926;DHT22;32667;48.248;-1.700;2022-12-01T01:03:07;7.40;78.00
46926;DHT22;32667;48.248;-1.700;2022-12-01T01:05:38;7.40;78.00
46926;DHT22;32667;48.248;-1.700;2022-12-01T01:08:08;7.40;77.90
46926;DHT22;32667;48.248;-1.700;2022-12-01T01:10:37;7.40;77.90
46926;DHT22;32667;48.248;-1.700;2022-12-01T01:13:04;7.40;77.90
46926;DHT22;32667;48.248;-1.700;2022-12-01T01:15:29;7.40;77.90
46926;DHT22;32667;48.248;-1.700;2022-12-01T01:17:55;7.40;77.90
46926;DHT22;32667;48.248;-1.700;2022-12-01T01:20:23;7.40;78.00
46926;DHT22;32667;48.248;-1.700;2022-12-01T01:22:49;7.40;78.00
46926;DHT22;32667;48.248;-1.700;2022-12-01T01:25:15;7.40;78.10
46926;DHT22;32667;48.248;-1.700;2022-12-01T01:27:41;7.40;78.10
46926;DHT22;32667;48.248;-1.700;2022-12-01T01:30:07;7.40;78.10
46926;DHT22;32667;48.248;-1.700;2022-12-01T01:32:33;7.40;78.10
46926;DHT22;32667;48.248;-1.700;2022-12-01T01:35:01;7.40;78.10
46926;DHT22;32667;48.248;-1.700;2022-12-01T01:37:27;7.40;78.10
46926;DHT22;32667;48.248;-1.700;2022-12-01T01:39:53;7.40;78.20
46926;DHT22;32667;48.248;-1.700;2022-12-01T01:42:19;7.40;78.20
46926;DHT22;32667;48.248;-1.700;2022-12-01T01:47:25;7.30;78.20
46926;DHT22;32667;48.248;-1.700;2022-12-01T01:49:53;7.30;78.20
46926;DHT22;32667;48.248;-1.700;2022-12-01T01:52:21;7.30;78.20
46926;DHT22;32667;48.248;-1.700;2022-12-01T01:54:51;7.20;78.20
46926;DHT22;32667;48.248;-1.700;2022-12-01T01:57:31;7.20;78.30
46926;DHT22;32667;48.248;-1.700;2022-12-01T02:00:05;7.20;78.30
46926;DHT22;32667;48.248;-1.700;2022-12-01T02:02:39;7.20;78.30
46926;DHT22;32667;48.248;-1.700;2022-12-01T02:05:15;7.10;78.40
46926;DHT22;32667;48.248;-1.700;2022-12-01T02:07:42;7.10;78.40
46926;DHT22;32667;48.248;-1.700;2022-12-01T02:10:10;7.10;78.40
46926;DHT22;32667;48.248;-1.700;2022-12-01T02:17:44;6.90;78.50
46926;DHT22;32667;48.248;-1.700;2022-12-01T02:20:31;6.90;78.60
46926;DHT22;32667;48.248;-1.700;2022-12-01T02:25:47;6.80;78.70
46926;DHT22;32667;48.248;-1.700;2022-12-01T02:31:24;6.80;78.80
46926;DHT22;32667;48.248;-1.700;2022-12-01T02:33:55;6.70;78.70
46926;DHT22;32667;48.248;-1.700;2022-12-01T02:39:26;6.70;78.80
46926;DHT22;32667;48.248;-1.700;2022-12-01T02:42:06;6.60;78.80
46926;DHT22;32667;48.248;-1.700;2022-12-01T02:44:42;6.60;78.90
46926;DHT22;32667;48.248;-1.700;2022-12-01T02:47:14;6.60;78.90
46926;DHT22;32667;48.248;-1.700;2022-12-01T02:49:48;6.50;78.90
46926;DHT22;32667;48.248;-1.700;2022-12-01T02:52:15;6.50;78.90
46926;DHT22;32667;48.248;-1.700;2022-12-01T02:54:43;6.50;78.90
46926;DHT22;32667;48.248;-1.700;2022-12-01T02:57:14;6.50;78.90
46926;DHT22;32667;48.248;-1.700;2022-12-01T02:59:42;6.50;78.90
46926;DHT22;32667;48.248;-1.700;2022-12-01T03:05:00;6.30;78.80
46926;DHT22;32667;48.248;-1.700;2022-12-01T03:07:43;6.20;78.90
46926;DHT22;32667;48.248;-1.700;2022-12-01T03:10:31;6.10;78.90
46926;DHT22;32667;48.248;-1.700;2022-12-01T03:21:01;6.00;79.30
46926;DHT22;32667;48.248;-1.700;2022-12-01T03:23:32;6.00;79.30
46926;DHT22;32667;48.248;-1.700;2022-12-01T03:26:02;6.00;79.70
46926;DHT22;32667;48.248;-1.700;2022-12-01T03:28:38;6.10;79.20
46926;DHT22;32667;48.248;-1.700;2022-12-01T03:31:11;6.10;79.10
46926;DHT22;32667;48.248;-1.700;2022-12-01T03:33:45;6.00;79.00
46926;DHT22;32667;48.248;-1.700;2022-12-01T03:36:36;6.00;79.00
46926;DHT22;32667;48.248;-1.700;2022-12-01T03:39:07;6.00;79.10
46926;DHT22;32667;48.248;-1.700;2022-12-01T03:41:40;5.90;79.10
46926;DHT22;32667;48.248;-1.700;2022-12-01T03:44:13;5.90;79.20
46926;DHT22;32667;48.248;-1.700;2022-12-01T03:47:15;5.90;79.30
46926;DHT22;32667;48.248;-1.700;2022-12-01T03:49:43;5.90;79.30
46926;DHT22;32667;48.248;-1.700;2022-12-01T03:52:46;5.90;79.20
46926;DHT22;32667;48.248;-1.700;2022-12-01T03:55:26;5.90;79.20
46926;DHT22;32667;48.248;-1.700;2022-12-01T03:58:11;5.90;79.10
46926;DHT22;32667;48.248;-1.700;2022-12-01T04:00:39;5.80;79.00
46926;DHT22;32667;48.248;-1.700;2022-12-01T04:03:05;5.80;79.00
46926;DHT22;32667;48.248;-1.700;2022-12-01T04:05:32;5.80;79.00
46926;DHT22;32667;48.248;-1.700;2022-12-01T04:07:59;5.80;79.00
46926;DHT22;32667;48.248;-1.700;2022-12-01T04:10:25;5.80;79.00
46926;DHT22;32667;48.248;-1.700;2022-12-01T04:12:51;5.80;79.10
46926;DHT22;32667;48.248;-1.700;2022-12-01T04:15:23;5.80;79.10
46926;DHT22;32667;48.248;-1.700;2022-12-01T04:17:49;5.80;79.10
46926;DHT22;32667;48.248;-1.700;2022-12-01T04:20:17;5.70;79.10
46926;DHT22;32667;48.248;-1.700;2022-12-01T04:22:43;5.70;79.10
46926;DHT22;32667;48.248;-1.700;2022-12-01T04:25:09;5.70;79.20
46926;DHT22;32667;48.248;-1.700;2022-12-01T04:27:36;5.70;79.20
46926;DHT22;32667;48.248;-1.700;2022-12-01T04:30:06;5.60;79.20
46926;DHT22;32667;48.248;-1.700;2022-12-01T04:32:39;5.70;79.20
46926;DHT22;32667;48.248;-1.700;2022-12-01T04:35:07;5.70;79.20
46926;DHT22;32667;48.248;-1.700;2022-12-01T04:37:33;5.70;79.20
46926;DHT22;32667;48.248;-1.700;2022-12-01T04:39:59;5.60;79.20
46926;DHT22;32667;48.248;-1.700;2022-12-01T04:42:25;5.60;79.20
46926;DHT22;32667;48.248;-1.700;2022-12-01T04:44:51;5.60;79.20
46926;DHT22;32667;48.248;-1.700;2022-12-01T04:47:16;5.50;79.20
46926;DHT22;32667;48.248;-1.700;2022-12-01T04:49:42;5.50;79.30
46926;DHT22;32667;48.248;-1.700;2022-12-01T04:52:08;5.50;79.30
46926;DHT22;32667;48.248;-1.700;2022-12-01T04:54:34;5.50;79.20
46926;DHT22;32667;48.248;-1.700;2022-12-01T04:56:59;5.40;79.20
46926;DHT22;32667;48.248;-1.700;2022-12-01T04:59:25;5.40;79.20
46926;DHT22;32667;48.248;-1.700;2022-12-01T05:01:51;5.40;79.20
46926;DHT22;32667;48.248;-1.700;2022-12-01T05:04:17;5.30;79.20
46926;DHT22;32667;48.248;-1.700;2022-12-01T05:06:43;5.30;79.30
46926;DHT22;32667;48.248;-1.700;2022-12-01T05:09:12;5.30;79.40
46926;DHT22;32667;48.248;-1.700;2022-12-01T05:11:38;5.30;79.30
46926;DHT22;32667;48.248;-1.700;2022-12-01T05:14:05;5.20;79.40
46926;DHT22;32667;48.248;-1.700;2022-12-01T05:16:31;5.20;79.50
46926;DHT22;32667;48.248;-1.700;2022-12-01T05:18:59;5.20;79.50
46926;DHT22;32667;48.248;-1.700;2022-12-01T05:21:49;5.20;79.40
46926;DHT22;32667;48.248;-1.700;2022-12-01T05:24:16;5.20;79.40
46926;DHT22;32667;48.248;-1.700;2022-12-01T05:26:42;5.20;79.40
46926;DHT22;32667;48.248;-1.700;2022-12-01T05:29:09;5.20;79.40
46926;DHT22;32667;48.248;-1.700;2022-12-01T05:31:35;5.10;79.40
46926;DHT22;32667;48.248;-1.700;2022-12-01T05:34:01;5.10;79.40
46926;DHT22;32667;48.248;-1.700;2022-12-01T05:36:27;5.10;79.40
46926;DHT22;32667;48.248;-1.700;2022-12-01T05:38:53;5.10;79.50
46926;DHT22;32667;48.248;-1.700;2022-12-01T05:41:20;5.00;79.50
46926;DHT22;32667;48.248;-1.700;2022-12-01T05:43:46;5.00;79.50
46926;DHT22;32667;48.248;-1.700;2022-12-01T05:46:11;5.00;79.50
46926;DHT22;32667;48.248;-1.700;2022-12-01T05:48:37;5.00;79.50
46926;DHT22;32667;48.248;-1.700;2022-12-01T05:51:11;5.00;79.50
46926;DHT22;32667;48.248;-1.700;2022-12-01T05:53:37;5.00;79.50
46926;DHT22;32667;48.248;-1.700;2022-12-01T05:56:06;4.90;79.40
46926;DHT22;32667;48.248;-1.700;2022-12-01T05:58:33;4.90;79.40
46926;DHT22;32667;48.248;-1.700;2022-12-01T06:00:58;4.90;79.40
46926;DHT22;32667;48.248;-1.700;2022-12-01T06:03:25;4.90;79.50
46926;DHT22;32667;48.248;-1.700;2022-12-01T06:05:50;4.90;79.50
46926;DHT22;32667;48.248;-1.700;2022-12-01T06:08:16;4.90;79.50
46926;DHT22;32667;48.248;-1.700;2022-12-01T06:10:43;4.90;79.50
46926;DHT22;32667;48.248;-1.700;2022-12-01T06:13:09;4.90;79.50
46926;DHT22;32667;48.248;-1.700;2022-12-01T06:15:35;4.90;79.40
46926;DHT22;32667;48.248;-1.700;2022-12-01T06:18:00;4.90;79.40
46926;DHT22;32667;48.248;-1.700;2022-12-01T06:20:27;4.90;79.40
46926;DHT22;32667;48.248;-1.700;2022-12-01T06:22:52;4.90;79.40
46926;DHT22;32667;48.248;-1.700;2022-12-01T06:25:18;4.90;79.40
46926;DHT22;32667;48.248;-1.700;2022-12-01T06:27:44;4.90;79.40
46926;DHT22;32667;48.248;-1.700;2022-12-01T06:30:10;4.90;79.30
46926;DHT22;32667;48.248;-1.700;2022-12-01T06:32:36;4.90;79.30
46926;DHT22;32667;48.248;-1.700;2022-12-01T06:35:02;4.90;79.30
46926;DHT22;32667;48.248;-1.700;2022-12-01T06:37:28;4.90;79.20
46926;DHT22;32667;48.248;-1.700;2022-12-01T06:39:53;4.90;79.20
46926;DHT22;32667;48.248;-1.700;2022-12-01T06:42:19;4.90;79.20
46926;DHT22;32667;48.248;-1.700;2022-12-01T06:44:45;4.90;79.30
46926;DHT22;32667;48.248;-1.700;2022-12-01T06:47:11;4.90;79.20
46926;DHT22;32667;48.248;-1.700;2022-12-01T06:49:36;4.90;79.30
46926;DHT22;32667;48.248;-1.700;2022-12-01T06:52:03;4.80;79.30
46926;DHT22;32667;48.248;-1.700;2022-12-01T06:54:29;4.80;79.20
46926;DHT22;32667;48.248;-1.700;2022-12-01T06:56:55;4.80;79.30
46926;DHT22;32667;48.248;-1.700;2022-12-01T06:59:21;4.80;79.30
46926;DHT22;32667;48.248;-1.700;2022-12-01T07:01:46;4.80;79.30
46926;DHT22;32667;48.248;-1.700;2022-12-01T07:04:12;4.80;79.40
46926;DHT22;32667;48.248;-1.700;2022-12-01T07:06:38;4.80;79.40
46926;DHT22;32667;48.248;-1.700;2022-12-01T07:09:04;4.80;79.40
46926;DHT22;32667;48.248;-1.700;2022-12-01T07:11:29;4.80;79.40
46926;DHT22;32667;48.248;-1.700;2022-12-01T07:13:57;4.70;79.40
46926;DHT22;32667;48.248;-1.700;2022-12-01T07:16:23;4.70;79.40
46926;DHT22;32667;48.248;-1.700;2022-12-01T07:18:49;4.70;79.40
46926;DHT22;32667;48.248;-1.700;2022-12-01T07:21:15;4.70;79.50
46926;DHT22;32667;48.248;-1.700;2022-12-01T07:23:41;4.70;79.50
46926;DHT22;32667;48.248;-1.700;2022-12-01T07:26:10;4.70;79.50
46926;DHT22;32667;48.248;-1.700;2022-12-01T07:28:37;4.70;79.50
46926;DHT22;32667;48.248;-1.700;2022-12-01T07:31:14;4.70;79.50
46926;DHT22;32667;48.248;-1.700;2022-12-01T07:33:40;4.70;79.60
46926;DHT22;32667;48.248;-1.700;2022-12-01T07:36:07;4.70;79.40
46926;DHT22;32667;48.248;-1.700;2022-12-01T07:38:34;4.70;79.50
46926;DHT22;32667;48.248;-1.700;2022-12-01T07:41:01;4.70;79.40
46926;DHT22;32667;48.248;-1.700;2022-12-01T07:43:29;4.70;79.40
46926;DHT22;32667;48.248;-1.700;2022-12-01T07:45:56;4.70;79.40
46926;DHT22;32667;48.248;-1.700;2022-12-01T07:48:21;4.80;79.40
46926;DHT22;32667;48.248;-1.700;2022-12-01T07:50:47;4.80;79.40
46926;DHT22;32667;48.248;-1.700;2022-12-01T07:53:13;4.80;79.30
46926;DHT22;32667;48.248;-1.700;2022-12-01T07:55:39;4.80;79.20
46926;DHT22;32667;48.248;-1.700;2022-12-01T07:58:04;4.90;79.20
46926;DHT22;32667;48.248;-1.700;2022-12-01T08:00:30;4.90;79.20
46926;DHT22;32667;48.248;-1.700;2022-12-01T08:02:56;4.90;79.10
46926;DHT22;32667;48.248;-1.700;2022-12-01T08:05:22;5.00;79.10
46926;DHT22;32667;48.248;-1.700;2022-12-01T08:07:47;5.00;79.10
46926;DHT22;32667;48.248;-1.700;2022-12-01T08:10:13;5.00;79.10
46926;DHT22;32667;48.248;-1.700;2022-12-01T08:12:39;5.00;79.10
46926;DHT22;32667;48.248;-1.700;2022-12-01T08:15:05;5.00;79.00
46926;DHT22;32667;48.248;-1.700;2022-12-01T08:17:31;5.00;79.00
46926;DHT22;32667;48.248;-1.700;2022-12-01T08:19:56;5.10;79.00
46926;DHT22;32667;48.248;-1.700;2022-12-01T08:22:22;5.10;79.00
46926;DHT22;32667;48.248;-1.700;2022-12-01T08:24:48;5.20;79.00
46926;DHT22;32667;48.248;-1.700;2022-12-01T08:27:14;5.20;78.90
46926;DHT22;32667;48.248;-1.700;2022-12-01T08:29:40;5.30;78.90
46926;DHT22;32667;48.248;-1.700;2022-12-01T08:32:05;5.40;78.90
46926;DHT22;32667;48.248;-1.700;2022-12-01T08:34:34;5.40;78.80
46926;DHT22;32667;48.248;-1.700;2022-12-01T08:37:02;5.50;78.70
46926;DHT22;32667;48.248;-1.700;2022-12-01T08:39:28;5.60;78.60
46926;DHT22;32667;48.248;-1.700;2022-12-01T08:41:54;5.60;78.50
46926;DHT22;32667;48.248;-1.700;2022-12-01T08:44:19;5.70;78.50
46926;DHT22;32667;48.248;-1.700;2022-12-01T08:46:45;5.80;78.40
46926;DHT22;32667;48.248;-1.700;2022-12-01T08:49:11;5.80;78.30
46926;DHT22;32667;48.248;-1.700;2022-12-01T08:51:37;5.90;78.20
46926;DHT22;32667;48.248;-1.700;2022-12-01T08:54:03;6.00;78.20
46926;DHT22;32667;48.248;-1.700;2022-12-01T08:56:40;6.00;78.10
46926;DHT22;32667;48.248;-1.700;2022-12-01T08:59:07;6.00;78.00
46926;DHT22;32667;48.248;-1.700;2022-12-01T09:01:33;6.10;78.00
46926;DHT22;32667;48.248;-1.700;2022-12-01T09:04:00;6.20;78.00
46926;DHT22;32667;48.248;-1.700;2022-12-01T09:06:43;6.20;77.90
46926;DHT22;32667;48.248;-1.700;2022-12-01T09:09:12;6.20;77.90
46926;DHT22;32667;48.248;-1.700;2022-12-01T09:11:38;6.30;77.90
46926;DHT22;32667;48.248;-1.700;2022-12-01T09:14:04;6.30;77.90
46926;DHT22;32667;48.248;-1.700;2022-12-01T09:16:32;6.30;77.90
46926;DHT22;32667;48.248;-1.700;2022-12-01T09:18:57;6.30;77.90
46926;DHT22;32667;48.248;-1.700;2022-12-01T09:21:27;6.30;77.90
46926;DHT22;32667;48.248;-1.700;2022-12-01T09:23:55;6.30;77.90
46926;DHT22;32667;48.248;-1.700;2022-12-01T09:26:21;6.30;77.90
46926;DHT22;32667;48.248;-1.700;2022-12-01T09:29:09;6.30;77.90
46926;DHT22;32667;48.248;-1.700;2022-12-01T09:31:35;6.30;78.00
46926;DHT22;32667;48.248;-1.700;2022-12-01T09:34:06;6.30;78.00
46926;DHT22;32667;48.248;-1.700;2022-12-01T09:36:34;6.20;78.00
46926;DHT22;32667;48.248;-1.700;2022-12-01T09:39:00;6.20;78.00
46926;DHT22;32667;48.248;-1.700;2022-12-01T09:52:58;6.00;78.20
46926;DHT22;32667;48.248;-1.700;2022-12-01T09:55:25;5.90;78.30
46926;DHT22;32667;48.248;-1.700;2022-12-01T09:57:53;5.90;78.30
46926;DHT22;32667;48.248;-1.700;2022-12-01T10:00:32;5.80;78.30
46926;DHT22;32667;48.248;-1.700;2022-12-01T10:06:35;5.80;78.50
46926;DHT22;32667;48.248;-1.700;2022-12-01T10:09:22;5.80;78.60
46926;DHT22;32667;48.248;-1.700;2022-12-01T10:11:53;5.80;78.50
46926;DHT22;32667;48.248;-1.700;2022-12-01T10:14:21;5.80;78.50
46926;DHT22;32667;48.248;-1.700;2022-12-01T10:20:35;5.90;78.40
46926;DHT22;32667;48.248;-1.700;2022-12-01T10:23:42;5.90;78.30
46926;DHT22;32667;48.248;-1.700;2022-12-01T10:26:17;6.00;78.20
46926;DHT22;32667;48.248;-1.700;2022-12-01T10:36:24;6.20;78.10
46926;DHT22;32667;48.248;-1.700;2022-12-01T10:38:50;6.30;78.00
46926;DHT22;32667;48.248;-1.700;2022-12-01T10:41:18;6.30;77.80
46926;DHT22;32667;48.248;-1.700;2022-12-01T10:43:55;6.40;77.70
46926;DHT22;32667;48.248;-1.700;2022-12-01T10:46:45;6.50;77.60
46926;DHT22;32667;48.248;-1.700;2022-12-01T10:49:15;6.50;77.60
46926;DHT22;32667;48.248;-1.700;2022-12-01T10:54:15;6.40;77.80
46926;DHT22;32667;48.248;-1.700;2022-12-01T10:56:42;6.40;77.90
46926;DHT22;32667;48.248;-1.700;2022-12-01T10:59:35;6.50;78.00
46926;DHT22;32667;48.248;-1.700;2022-12-01T11:02:04;6.60;78.00
46926;DHT22;32667;48.248;-1.700;2022-12-01T11:04:42;6.60;77.80
46926;DHT22;32667;48.248;-1.700;2022-12-01T11:07:17;6.70;77.80
46926;DHT22;32667;48.248;-1.700;2022-12-01T11:09:45;6.80;77.70
46926;DHT22;32667;48.248;-1.700;2022-12-01T11:12:16;6.80;77.60
46926;DHT22;32667;48.248;-1.700;2022-12-01T11:14:43;6.80;77.50
46926;DHT22;32667;48.248;-1.700;2022-12-01T11:17:40;6.90;77.60
46926;DHT22;32667;48.248;-1.700;2022-12-01T11:20:26;6.90;77.50
46926;DHT22;32667;48.248;-1.700;2022-12-01T11:23:20;7.00;77.50
46926;DHT22;32667;48.248;-1.700;2022-12-01T11:25:59;7.00;77.40
46926;DHT22;32667;48.248;-1.700;2022-12-01T11:28:25;7.00;77.40
46926;DHT22;32667;48.248;-1.700;2022-12-01T11:31:00;7.10;77.40
46926;DHT22;32667;48.248;-1.700;2022-12-01T11:33:27;7.10;77.30
46926;DHT22;32667;48.248;-1.700;2022-12-01T11:35:54;7.20;77.30
46926;DHT22;32667;48.248;-1.700;2022-12-01T11:38:22;7.20;77.30
46926;DHT22;32667;48.248;-1.700;2022-12-01T11:40:54;7.30;77.20
46926;DHT22;32667;48.248;-1.700;2022-12-01T11:43:24;7.30;77.20
46926;DHT22;32667;48.248;-1.700;2022-12-01T11:45:53;7.40;77.20
46926;DHT22;32667;48.248;-1.700;2022-12-01T11:48:27;7.50;77.10
46926;DHT22;32667;48.248;-1.700;2022-12-01T11:53:34;7.60;77.00
46926;DHT22;32667;48.248;-1.700;2022-12-01T11:59:26;7.70;76.90
46926;DHT22;32667;48.248;-1.700;2022-12-01T12:10:28;8.10;76.60
46926;DHT22;32667;48.248;-1.700;2022-12-01T12:16:42;8.30;76.40
46926;DHT22;32667;48.248;-1.700;2022-12-01T12:22:22;8.30;76.30
46926;DHT22;32667;48.248;-1.700;2022-12-01T12:27:47;8.30;76.40
46926;DHT22;32667;48.248;-1.700;2022-12-01T12:30:22;8.30;76.50
46926;DHT22;32667;48.248;-1.700;2022-12-01T12:36:09;8.50;76.40
46926;DHT22;32667;48.248;-1.700;2022-12-01T12:39:04;8.50;76.20
46926;DHT22;32667;48.248;-1.700;2022-12-01T12:41:35;8.60;76.20
46926;DHT22;32667;48.248;-1.700;2022-12-01T12:44:16;8.70;76.20
46926;DHT22;32667;48.248;-1.700;2022-12-01T12:49:53;8.90;76.00
46926;DHT22;32667;48.248;-1.700;2022-12-01T12:52:22;9.00;75.80
46926;DHT22;32667;48.248;-1.700;2022-12-01T12:55:14;9.00;75.70
46926;DHT22;32667;48.248;-1.700;2022-12-01T12:57:53;9.10;75.80
46926;DHT22;32667;48.248;-1.700;2022-12-01T13:00:23;9.10;75.60
46926;DHT22;32667;48.248;-1.700;2022-12-01T13:03:00;9.20;75.70
46926;DHT22;32667;48.248;-1.700;2022-12-01T13:13:22;9.70;75.20
46926;DHT22;32667;48.248;-1.700;2022-12-01T13:15:50;9.90;75.10
46926;DHT22;32667;48.248;-1.700;2022-12-01T13:18:49;10.10;75.00
46926;DHT22;32667;48.248;-1.700;2022-12-01T13:21:19;10.20;74.80
46926;DHT22;32667;48.248;-1.700;2022-12-01T13:23:47;10.30;74.70
46926;DHT22;32667;48.248;-1.700;2022-12-01T13:26:14;10.30;74.70
46926;DHT22;32667;48.248;-1.700;2022-12-01T13:31:12;10.40;74.80
46926;DHT22;32667;48.248;-1.700;2022-12-01T13:33:58;10.40;74.80
46926;DHT22;32667;48.248;-1.700;2022-12-01T13:36:24;10.50;74.90
46926;DHT22;32667;48.248;-1.700;2022-12-01T13:39:18;10.50;75.00
46926;DHT22;32667;48.248;-1.700;2022-12-01T13:41:46;10.50;75.00
46926;DHT22;32667;48.248;-1.700;2022-12-01T13:44:21;10.60;75.00
46926;DHT22;32667;48.248;-1.700;2022-12-01T13:47:01;10.50;75.00
46926;DHT22;32667;48.248;-1.700;2022-12-01T13:49:48;10.50;75.10
46926;DHT22;32667;48.248;-1.700;2022-12-01T14:00:31;10.70;76.00
46926;DHT22;32667;48.248;-1.700;2022-12-01T14:08:29;10.80;75.30
46926;DHT22;32667;48.248;-1.700;2022-12-01T14:11:02;10.80;75.30
46926;DHT22;32667;48.248;-1.700;2022-12-01T14:13:30;10.80;75.20
46926;DHT22;32667;48.248;-1.700;2022-12-01T14:16:01;10.80;75.30
46926;DHT22;32667;48.248;-1.700;2022-12-01T14:18:34;10.90;75.30
46926;DHT22;32667;48.248;-1.700;2022-12-01T14:21:07;10.90;75.30
46926;DHT22;32667;48.248;-1.700;2022-12-01T14:23:37;10.90;75.30
46926;DHT22;32667;48.248;-1.700;2022-12-01T14:26:19;10.90;75.40
46926;DHT22;32667;48.248;-1.700;2022-12-01T14:34:02;10.90;75.70
46926;DHT22;32667;48.248;-1.700;2022-12-01T14:36:43;10.80;75.70
46926;DHT22;32667;48.248;-1.700;2022-12-01T14:39:17;10.80;75.70
46926;DHT22;32667;48.248;-1.700;2022-12-01T14:44:30;10.70;75.80
46926;DHT22;32667;48.248;-1.700;2022-12-01T14:47:14;10.70;75.90
46926;DHT22;32667;48.248;-1.700;2022-12-01T14:50:10;10.60;75.90
46926;DHT22;32667;48.248;-1.700;2022-12-01T14:52:45;10.60;75.90
46926;DHT22;32667;48.248;-1.700;2022-12-01T14:55:24;10.60;76.00
46926;DHT22;32667;48.248;-1.700;2022-12-01T14:57:59;10.60;76.00
46926;DHT22;32667;48.248;-1.700;2022-12-01T15:00:25;10.60;76.10
46926;DHT22;32667;48.248;-1.700;2022-12-01T15:05:20;10.50;76.00
46926;DHT22;32667;48.248;-1.700;2022-12-01T15:07:49;10.50;76.10
46926;DHT22;32667;48.248;-1.700;2022-12-01T15:12:42;10.50;76.10
46926;DHT22;32667;48.248;-1.700;2022-12-01T15:15:23;10.50;76.10
46926;DHT22;32667;48.248;-1.700;2022-12-01T15:17:49;10.50;76.10
46926;DHT22;32667;48.248;-1.700;2022-12-01T15:20:38;10.50;76.10
46926;DHT22;32667;48.248;-1.700;2022-12-01T15:23:12;10.50;76.20
46926;DHT22;32667;48.248;-1.700;2022-12-01T15:25:44;10.50;76.20
46926;DHT22;32667;48.248;-1.700;2022-12-01T15:28:14;10.40;76.20
46926;DHT22;32667;48.248;-1.700;2022-12-01T15:30:43;10.40;76.20
46926;DHT22;32667;48.248;-1.700;2022-12-01T15:35:48;10.40;76.40
46926;DHT22;32667;48.248;-1.700;2022-12-01T15:38:30;10.30;76.30
46926;DHT22;32667;48.248;-1.700;2022-12-01T15:40:58;10.30;76.40
46926;DHT22;32667;48.248;-1.700;2022-12-01T15:43:33;10.30;76.50
46926;DHT22;32667;48.248;-1.700;2022-12-01T15:46:12;10.30;76.50
46926;DHT22;32667;48.248;-1.700;2022-12-01T15:48:38;10.30;76.50
46926;DHT22;32667;48.248;-1.700;2022-12-01T15:51:25;10.30;76.50
46926;DHT22;32667;48.248;-1.700;2022-12-01T15:53:56;10.20;76.50
46926;DHT22;32667;48.248;-1.700;2022-12-01T15:56:31;10.20;76.60
46926;DHT22;32667;48.248;-1.700;2022-12-01T15:59:25;10.20;76.60
46926;DHT22;32667;48.248;-1.700;2022-12-01T16:01:52;10.20;76.70
46926;DHT22;32667;48.248;-1.700;2022-12-01T16:04:24;10.10;76.70
46926;DHT22;32667;48.248;-1.700;2022-12-01T16:07:03;10.00;76.70
46926;DHT22;32667;48.248;-1.700;2022-12-01T16:09:34;9.90;77.00
46926;DHT22;32667;48.248;-1.700;2022-12-01T16:17:27;9.70;77.40
46926;DHT22;32667;48.248;-1.700;2022-12-01T16:20:31;9.70;77.60
46926;DHT22;32667;48.248;-1.700;2022-12-01T16:23:03;9.60;77.60
46926;DHT22;32667;48.248;-1.700;2022-12-01T16:25:38;9.60;77.50
46926;DHT22;32667;48.248;-1.700;2022-12-01T16:28:19;9.50;77.50
46926;DHT22;32667;48.248;-1.700;2022-12-01T16:30:46;9.50;77.50
46926;DHT22;32667;48.248;-1.700;2022-12-01T16:33:16;9.40;77.50
46926;DHT22;32667;48.248;-1.700;2022-12-01T16:35:42;9.30;77.60
46926;DHT22;32667;48.248;-1.700;2022-12-01T16:38:17;9.30;77.70
46926;DHT22;32667;48.248;-1.700;2022-12-01T16:40:46;9.20;77.70
46926;DHT22;32667;48.248;-1.700;2022-12-01T16:43:14;9.10;77.80
46926;DHT22;32667;48.248;-1.700;2022-12-01T16:45:41;9.10;77.90
46926;DHT22;32667;48.248;-1.700;2022-12-01T16:48:07;9.10;77.90
46926;DHT22;32667;48.248;-1.700;2022-12-01T16:50:34;9.00;77.90
46926;DHT22;32667;48.248;-1.700;2022-12-01T16:52:59;9.00;77.90
46926;DHT22;32667;48.248;-1.700;2022-12-01T16:55:43;9.00;77.90
46926;DHT22;32667;48.248;-1.700;2022-12-01T16:58:11;9.00;78.40
46926;DHT22;32667;48.248;-1.700;2022-12-01T17:00:37;9.00;77.80
46926;DHT22;32667;48.248;-1.700;2022-12-01T17:03:04;9.00;77.70
46926;DHT22;32667;48.248;-1.700;2022-12-01T17:05:32;9.00;77.70
46926;DHT22;32667;48.248;-1.700;2022-12-01T17:07:58;9.00;77.70
46926;DHT22;32667;48.248;-1.700;2022-12-01T17:10:24;8.90;77.70
46926;DHT22;32667;48.248;-1.700;2022-12-01T17:12:51;8.90;77.70
46926;DHT22;32667;48.248;-1.700;2022-12-01T17:15:17;8.90;77.70
46926;DHT22;32667;48.248;-1.700;2022-12-01T17:17:43;8.80;77.70
46926;DHT22;32667;48.248;-1.700;2022-12-01T17:20:10;8.80;77.80
46926;DHT22;32667;48.248;-1.700;2022-12-01T17:22:37;8.80;77.70
46926;DHT22;32667;48.248;-1.700;2022-12-01T17:25:03;8.70;77.70
46926;DHT22;32667;48.248;-1.700;2022-12-01T17:27:30;8.70;77.70
46926;DHT22;32667;48.248;-1.700;2022-12-01T17:29:57;8.70;77.80
46926;DHT22;32667;48.248;-1.700;2022-12-01T17:32:24;8.60;77.80
46926;DHT22;32667;48.248;-1.700;2022-12-01T17:34:53;8.60;77.80
46926;DHT22;32667;48.248;-1.700;2022-12-01T17:37:19;8.60;77.90
46926;DHT22;32667;48.248;-1.700;2022-12-01T17:39:47;8.50;77.90
46926;DHT22;32667;48.248;-1.700;2022-12-01T17:42:14;8.50;78.10
46926;DHT22;32667;48.248;-1.700;2022-12-01T17:44:40;8.40;78.60
46926;DHT22;32667;48.248;-1.700;2022-12-01T17:47:08;8.30;78.10
46926;DHT22;32667;48.248;-1.700;2022-12-01T17:49:35;8.30;78.10
46926;DHT22;32667;48.248;-1.700;2022-12-01T17:52:04;8.30;78.10
46926;DHT22;32667;48.248;-1.700;2022-12-01T17:54:31;8.20;78.20
46926;DHT22;32667;48.248;-1.700;2022-12-01T17:57:00;8.20;78.30
46926;DHT22;32667;48.248;-1.700;2022-12-01T17:59:36;8.10;78.20